Time;durP1;ratioP1;P1;durP2;ratioP2;P2;SDS_P1;SDS_P2;PMS_P1;PMS_P2;Temp;Humidity;BMP_temperature;BMP_pressure;BME280_temperature;BME280_humidity;BME280_pressure;Samples;Min_cycle;Max_cycle;Signal;HPM_P1;HPM_P2
2024/03/28 00:00:33;;;;;;;7.63;2.20;;;;;;;;;;4974655;28;20042;-79
2024/03/28 00:03:03;;;;;;;7.95;2.42;;;;;;;;;;4974845;28;20043;-81
2024/03/28 00:05:32;;;;;;;5.30;2.55;;;;;;;;;;4974781;28;20047;-80
2024/03/28 00:08:00;;;;;;;5.63;2.85;;;;;;;;;;4974958;28;20074;-82
2024/03/28 00:10:28;;;;;;;7.10;2.60;;;;;;;;;;4974602;28;20058;-79
2024/03/28 00:12:56;;;;;;;7.90;2.92;;;;;;;;;;4972737;28;20059;-80
2024/03/28 00:15:24;;;;;;;8.70;2.65;;;;;;;;;;4973742;28;20051;-80
2024/03/28 00:17:52;;;;;;;5.93;2.63;;;;;;;;;;4973930;28;20421;-81
2024/03/28 00:20:20;;;;;;;6.20;2.72;;;;;;;;;;4974902;28;20045;-82
2024/03/28 00:22:48;;;;;;;4.22;2.63;;;;;;;;;;4974747;28;20123;-80
2024/03/28 00:25:17;;;;;;;6.95;2.22;;;;;;;;;;4974498;28;20051;-82
2024/03/28 00:27:45;;;;;;;8.18;2.08;;;;;;;;;;4974573;28;20054;-80
2024/03/28 00:30:13;;;;;;;5.97;2.03;;;;;;;;;;4974788;28;20051;-80
2024/03/28 00:32:42;;;;;;;7.88;2.00;;;;;;;;;;4974973;28;20051;-80
2024/03/28 00:35:10;;;;;;;4.75;2.22;;;;;;;;;;4974529;28;20047;-80
2024/03/28 00:37:38;;;;;;;5.38;1.70;;;;;;;;;;4974107;28;20061;-79
2024/03/28 00:40:06;;;;;;;7.95;2.25;;;;;;;;;;4974629;28;20043;-80
2024/03/28 00:42:35;;;;;;;7.25;2.20;;;;;;;;;;4974212;28;20042;-79
2024/03/28 00:45:04;;;;;;;6.07;2.13;;;;;;;;;;4974243;28;20058;-80
2024/03/28 00:48:00;;;;;;;9.60;2.47;;;;;;;;;;4973684;28;20049;-80
2024/03/28 00:50:29;;;;;;;7.75;2.50;;;;;;;;;;4973479;28;20039;-80
2024/03/28 00:52:57;;;;;;;7.80;2.40;;;;;;;;;;4974002;28;20047;-79
2024/03/28 00:55:25;;;;;;;5.72;2.30;;;;;;;;;;4973737;28;20054;-80
2024/03/28 00:57:55;;;;;;;6.95;2.90;;;;;;;;;;4973417;28;20039;-79
2024/03/28 01:00:23;;;;;;;70.95;5.20;;;;;;;;;;4973385;28;20059;-79
2024/03/28 01:02:51;;;;;;;4.45;2.10;;;;;;;;;;4973230;28;20043;-79
2024/03/28 01:05:20;;;;;;;8.18;2.83;;;;;;;;;;4973565;28;20058;-80
2024/03/28 01:07:49;;;;;;;11.18;2.40;;;;;;;;;;4958123;28;20050;-78
2024/03/28 01:10:17;;;;;;;7.38;2.60;;;;;;;;;;4973321;28;20047;-81
2024/03/28 01:12:45;;;;;;;8.15;2.15;;;;;;;;;;4973513;28;20046;-80
2024/03/28 01:15:13;;;;;;;5.40;2.97;;;;;;;;;;4957643;28;20417;-80
2024/03/28 01:17:41;;;;;;;6.97;2.60;;;;;;;;;;4973417;28;20073;-80
2024/03/28 01:20:10;;;;;;;6.50;2.30;;;;;;;;;;4973305;28;20051;-81
2024/03/28 01:22:40;;;;;;;6.38;2.80;;;;;;;;;;4973312;28;20126;-79
2024/03/28 01:25:08;;;;;;;8.60;2.60;;;;;;;;;;4957195;28;20071;-82
2024/03/28 01:27:39;;;;;;;6.30;2.60;;;;;;;;;;4973066;28;20047;-80
2024/03/28 01:30:09;;;;;;;7.45;2.85;;;;;;;;;;4973628;28;20054;-81
2024/03/28 01:32:37;;;;;;;5.88;2.28;;;;;;;;;;4973235;28;20046;-80
2024/03/28 01:35:05;;;;;;;7.38;2.45;;;;;;;;;;4975297;28;20047;-82
2024/03/28 01:37:33;;;;;;;4.82;2.40;;;;;;;;;;4958839;28;20054;-80
2024/03/28 01:40:03;;;;;;;6.60;2.25;;;;;;;;;;4974229;28;20421;-80
2024/03/28 01:42:31;;;;;;;4.05;2.40;;;;;;;;;;4974805;28;20050;-81
2024/03/28 01:45:01;;;;;;;5.88;2.42;;;;;;;;;;4975035;28;20043;-82
2024/03/28 01:47:30;;;;;;;6.80;2.55;;;;;;;;;;4979317;28;20038;-80
2024/03/28 01:49:59;;;;;;;5.05;2.35;;;;;;;;;;4978761;28;20493;-80
2024/03/28 01:52:27;;;;;;;6.75;2.28;;;;;;;;;;4977521;28;20042;-80
2024/03/28 01:54:56;;;;;;;8.60;2.10;;;;;;;;;;4977950;28;20043;-78
2024/03/28 01:57:25;;;;;;;4.68;2.00;;;;;;;;;;4975030;28;20047;-80
2024/03/28 01:59:53;;;;;;;6.32;2.03;;;;;;;;;;4958616;28;20059;-80
2024/03/28 02:02:22;;;;;;;5.40;2.50;;;;;;;;;;4958873;28;20058;-83
2024/03/28 02:04:51;;;;;;;5.88;2.00;;;;;;;;;;4974581;28;20058;-80
2024/03/28 02:07:19;;;;;;;5.85;2.65;;;;;;;;;;4958066;28;20065;-80
2024/03/28 02:09:48;;;;;;;4.70;1.88;;;;;;;;;;4974458;28;20375;-79
2024/03/28 02:12:16;;;;;;;6.63;2.30;;;;;;;;;;4972651;28;20058;-81
2024/03/28 02:14:44;;;;;;;6.63;2.40;;;;;;;;;;4972581;28;20050;-79
2024/03/28 02:17:13;;;;;;;6.65;2.72;;;;;;;;;;4974078;28;20417;-80
2024/03/28 02:19:42;;;;;;;6.38;2.42;;;;;;;;;;4972393;28;20183;-79
2024/03/28 02:22:10;;;;;;;7.82;3.10;;;;;;;;;;4973306;28;20050;-80
2024/03/28 02:24:41;;;;;;;11.18;3.08;;;;;;;;;;4973930;28;20054;-81
2024/03/28 02:27:09;;;;;;;10.63;2.95;;;;;;;;;;4973347;28;20050;-80
2024/03/28 02:29:42;;;;;;;8.77;3.25;;;;;;;;;;4972569;28;20059;-79
2024/03/28 02:32:13;;;;;;;7.70;3.25;;;;;;;;;;4973877;28;20050;-81
2024/03/28 02:34:42;;;;;;;10.40;3.28;;;;;;;;;;4970959;28;20051;-83
2024/03/28 02:37:11;;;;;;;5.97;3.10;;;;;;;;;;4973535;28;20397;-81
2024/03/28 02:39:39;;;;;;;10.35;3.42;;;;;;;;;;4973143;28;20058;-80
2024/03/28 02:42:07;;;;;;;8.98;3.13;;;;;;;;;;4973019;28;20409;-79
2024/03/28 02:44:35;;;;;;;10.63;3.53;;;;;;;;;;4971158;28;20461;-79
2024/03/28 02:47:03;;;;;;;13.00;3.50;;;;;;;;;;4956686;28;20058;-79
2024/03/28 02:49:32;;;;;;;11.15;3.13;;;;;;;;;;4973983;28;20047;-78
2024/03/28 02:52:00;;;;;;;8.07;2.90;;;;;;;;;;4973088;28;20051;-80
2024/03/28 02:54:28;;;;;;;7.07;2.63;;;;;;;;;;4973662;28;20050;-78
2024/03/28 02:57:02;;;;;;;8.43;2.85;;;;;;;;;;4973961;28;20073;-79
2024/03/28 02:59:31;;;;;;;7.95;2.67;;;;;;;;;;4972834;28;20047;-82
2024/03/28 03:01:59;;;;;;;6.80;2.65;;;;;;;;;;4972732;28;20502;-80
2024/03/28 03:04:28;;;;;;;6.93;2.92;;;;;;;;;;4958058;28;20461;-80
2024/03/28 03:06:56;;;;;;;5.93;3.05;;;;;;;;;;4973101;28;20403;-79
2024/03/28 03:09:25;;;;;;;10.00;2.70;;;;;;;;;;4973277;28;20038;-80
2024/03/28 03:11:53;;;;;;;8.07;3.03;;;;;;;;;;4972103;28;20054;-82
2024/03/28 03:14:21;;;;;;;9.23;3.00;;;;;;;;;;4972090;28;20409;-81
2024/03/28 03:16:49;;;;;;;5.68;2.70;;;;;;;;;;4957724;28;20489;-79
2024/03/28 03:19:17;;;;;;;6.40;3.33;;;;;;;;;;4973631;28;20042;-79
2024/03/28 03:21:51;;;;;;;5.68;2.72;;;;;;;;;;4973163;28;20042;-81
2024/03/28 03:24:20;;;;;;;5.00;2.83;;;;;;;;;;4971882;28;20497;-79
2024/03/28 03:26:51;;;;;;;7.78;3.20;;;;;;;;;;4973712;28;20382;-81
2024/03/28 03:34:54;;;;;;;7.55;2.90;;;;;;;;;;4972211;28;20054;-80
2024/03/28 03:37:23;;;;;;;8.80;3.05;;;;;;;;;;4972097;28;20058;-81
2024/03/28 03:39:55;;;;;;;8.20;2.95;;;;;;;;;;4973146;28;20043;-82
2024/03/28 03:42:24;;;;;;;7.78;2.92;;;;;;;;;;4972664;28;20058;-79
2024/03/28 03:44:52;;;;;;;5.72;2.67;;;;;;;;;;4956473;28;20057;-81
2024/03/28 03:47:21;;;;;;;7.35;3.00;;;;;;;;;;4972909;28;20043;-82
2024/03/28 03:49:49;;;;;;;5.75;2.55;;;;;;;;;;4973119;28;20054;-80
2024/03/28 03:52:18;;;;;;;8.40;2.80;;;;;;;;;;4972713;28;20054;-79
2024/03/28 03:54:47;;;;;;;5.35;3.15;;;;;;;;;;4956356;28;20055;-80
2024/03/28 03:57:15;;;;;;;7.68;3.58;;;;;;;;;;4972196;28;20419;-80
2024/03/28 03:59:43;;;;;;;6.97;3.38;;;;;;;;;;4972784;28;20054;-79
2024/03/28 04:02:11;;;;;;;7.40;3.22;;;;;;;;;;4971840;28;20405;-81
2024/03/28 04:04:40;;;;;;;8.73;3.03;;;;;;;;;;4972890;28;20047;-80
2024/03/28 04:07:08;;;;;;;6.07;2.80;;;;;;;;;;4972536;28;20043;-80
2024/03/28 04:09:37;;;;;;;8.20;3.22;;;;;;;;;;4972870;28;20513;-79
2024/03/28 04:12:06;;;;;;;7.63;2.90;;;;;;;;;;4972884;28;20401;-80
2024/03/28 04:14:35;;;;;;;9.02;4.00;;;;;;;;;;4972113;28;20425;-79
2024/03/28 04:17:03;;;;;;;6.75;2.90;;;;;;;;;;4972724;28;20046;-80
2024/03/28 04:19:31;;;;;;;9.38;2.97;;;;;;;;;;4971317;28;20425;-83
2024/03/28 04:22:00;;;;;;;8.27;3.33;;;;;;;;;;4972479;28;20054;-80
2024/03/28 04:24:28;;;;;;;6.25;3.08;;;;;;;;;;4972747;28;20069;-79
2024/03/28 04:26:56;;;;;;;9.50;3.22;;;;;;;;;;4971850;28;20058;-80
2024/03/28 04:29:25;;;;;;;8.40;2.92;;;;;;;;;;4971865;28;20059;-81
2024/03/28 04:31:53;;;;;;;13.63;3.75;;;;;;;;;;4972065;28;20066;-80
2024/03/28 04:34:23;;;;;;;6.95;2.92;;;;;;;;;;4971891;28;20062;-80
2024/03/28 04:36:51;;;;;;;9.80;2.80;;;;;;;;;;4955557;28;20054;-81
2024/03/28 04:39:20;;;;;;;7.60;3.05;;;;;;;;;;4971486;28;20062;-80
2024/03/28 04:41:48;;;;;;;15.52;3.20;;;;;;;;;;4971373;28;20051;-83
2024/03/28 04:44:16;;;;;;;9.20;3.45;;;;;;;;;;4971519;28;20054;-83
2024/03/28 04:46:44;;;;;;;8.75;2.97;;;;;;;;;;4974135;28;20051;-83
2024/03/28 04:49:12;;;;;;;8.38;4.40;;;;;;;;;;4976188;28;20070;-83
2024/03/28 04:51:42;;;;;;;5.85;2.78;;;;;;;;;;4975180;28;20178;-82
2024/03/28 04:54:10;;;;;;;10.10;2.88;;;;;;;;;;4975510;28;20050;-79
2024/03/28 04:56:41;;;;;;;9.48;3.58;;;;;;;;;;4976006;28;20058;-80
2024/03/28 04:59:09;;;;;;;8.88;3.10;;;;;;;;;;4976022;28;20066;-80
2024/03/28 05:01:37;;;;;;;11.10;3.30;;;;;;;;;;4975243;28;20066;-82
2024/03/28 05:04:05;;;;;;;12.00;3.60;;;;;;;;;;4958808;28;20077;-78
2024/03/28 05:06:34;;;;;;;8.20;3.30;;;;;;;;;;4974788;28;20055;-79
2024/03/28 05:09:02;;;;;;;8.50;3.28;;;;;;;;;;4975615;28;20043;-82
2024/03/28 05:11:30;;;;;;;7.47;3.00;;;;;;;;;;4974536;28;20410;-80
2024/03/28 05:13:58;;;;;;;7.05;2.92;;;;;;;;;;4975215;28;20047;-80
2024/03/28 05:16:26;;;;;;;11.02;3.70;;;;;;;;;;4975567;28;20070;-81
2024/03/28 05:18:54;;;;;;;12.55;3.88;;;;;;;;;;4958481;28;20066;-82
2024/03/28 05:21:22;;;;;;;9.15;3.60;;;;;;;;;;4975218;28;20046;-79
2024/03/28 05:23:51;;;;;;;13.48;3.88;;;;;;;;;;4974736;28;20055;-79
2024/03/28 05:26:19;;;;;;;17.98;3.28;;;;;;;;;;4974768;28;20055;-79
2024/03/28 05:28:48;;;;;;;6.10;2.80;;;;;;;;;;4958993;28;20050;-80
2024/03/28 05:31:19;;;;;;;11.00;3.08;;;;;;;;;;4975280;28;20047;-82
2024/03/28 05:33:47;;;;;;;7.57;3.35;;;;;;;;;;4974356;28;20502;-80
2024/03/28 05:36:15;;;;;;;5.90;2.85;;;;;;;;;;4959083;28;20486;-79
2024/03/28 05:38:43;;;;;;;9.77;2.75;;;;;;;;;;4974956;28;20051;-82
2024/03/28 05:41:12;;;;;;;7.68;3.00;;;;;;;;;;4974380;28;20066;-79
2024/03/28 05:43:40;;;;;;;8.07;3.72;;;;;;;;;;4974673;28;20057;-83
2024/03/28 05:46:08;;;;;;;11.90;3.67;;;;;;;;;;4974727;28;20042;-84
2024/03/28 05:48:37;;;;;;;13.25;3.30;;;;;;;;;;4975475;28;20062;-80
2024/03/28 05:51:05;;;;;;;8.43;2.70;;;;;;;;;;4974761;28;20050;-81
2024/03/28 05:53:33;;;;;;;6.45;2.95;;;;;;;;;;4974727;28;20054;-79
2024/03/28 05:56:01;;;;;;;10.85;3.15;;;;;;;;;;4958693;28;20049;-80
2024/03/28 05:58:30;;;;;;;6.13;2.78;;;;;;;;;;4973805;28;20055;-80
2024/03/28 06:00:58;;;;;;;5.15;2.70;;;;;;;;;;4957480;28;20066;-81
2024/03/28 06:03:26;;;;;;;7.57;2.67;;;;;;;;;;4974821;28;20062;-81
2024/03/28 06:05:54;;;;;;;7.00;2.42;;;;;;;;;;4974470;28;20042;-80
2024/03/28 06:08:22;;;;;;;9.20;2.90;;;;;;;;;;4974563;28;20047;-79
2024/03/28 06:10:50;;;;;;;5.55;2.90;;;;;;;;;;4973539;28;20514;-80
2024/03/28 06:13:18;;;;;;;6.63;2.97;;;;;;;;;;4973484;28;20482;-80
2024/03/28 06:15:46;;;;;;;7.40;2.70;;;;;;;;;;4957216;28;20517;-81
2024/03/28 06:18:14;;;;;;;10.50;3.08;;;;;;;;;;4974204;28;20042;-80
2024/03/28 06:20:42;;;;;;;5.90;3.17;;;;;;;;;;4973469;28;20066;-79
2024/03/28 06:23:12;;;;;;;9.98;2.90;;;;;;;;;;4973943;28;20451;-80
2024/03/28 06:25:40;;;;;;;11.63;3.75;;;;;;;;;;4974115;28;20050;-82
2024/03/28 06:28:11;;;;;;;8.05;2.90;;;;;;;;;;4957968;28;20054;-82
2024/03/28 06:30:40;;;;;;;9.20;2.78;;;;;;;;;;4957895;28;20057;-79
2024/03/28 06:33:08;;;;;;;7.80;3.08;;;;;;;;;;4974268;28;20046;-79
2024/03/28 06:35:37;;;;;;;7.68;3.47;;;;;;;;;;4974140;28;20054;-79
2024/03/28 06:38:05;;;;;;;8.68;2.92;;;;;;;;;;4974654;28;20051;-79
2024/03/28 06:40:33;;;;;;;7.55;2.88;;;;;;;;;;4970948;28;20054;-79
2024/03/28 06:43:01;;;;;;;8.98;3.00;;;;;;;;;;4941922;28;20058;-80
2024/03/28 06:45:29;;;;;;;6.28;2.88;;;;;;;;;;4972755;28;20057;-80
2024/03/28 06:47:58;;;;;;;9.23;3.20;;;;;;;;;;4971908;28;20073;-81
2024/03/28 06:50:26;;;;;;;10.65;3.92;;;;;;;;;;4957306;28;20081;-79
2024/03/28 06:52:55;;;;;;;6.32;3.30;;;;;;;;;;4972964;28;20065;-80
2024/03/28 06:55:23;;;;;;;7.68;3.08;;;;;;;;;;4973463;28;20042;-83
2024/03/28 06:57:51;;;;;;;5.82;2.72;;;;;;;;;;4973620;28;20501;-82
2024/03/28 07:00:19;;;;;;;6.90;3.03;;;;;;;;;;4972933;28;20055;-79
2024/03/28 07:02:47;;;;;;;10.40;2.85;;;;;;;;;;4972839;28;20461;-80
2024/03/28 07:05:16;;;;;;;13.23;2.47;;;;;;;;;;4972319;28;20054;-80
2024/03/28 07:07:44;;;;;;;7.00;3.00;;;;;;;;;;4973049;28;20047;-80
2024/03/28 07:10:12;;;;;;;6.03;2.50;;;;;;;;;;4972955;28;20043;-80
2024/03/28 07:12:40;;;;;;;9.45;2.90;;;;;;;;;;4956842;28;20125;-79
2024/03/28 07:15:11;;;;;;;6.80;2.85;;;;;;;;;;4971487;28;20051;-79
2024/03/28 07:17:39;;;;;;;8.73;2.92;;;;;;;;;;4972739;28;20051;-82
2024/03/28 07:20:08;;;;;;;9.20;3.20;;;;;;;;;;4973024;28;20059;-80
2024/03/28 07:22:37;;;;;;;7.22;2.92;;;;;;;;;;4973315;28;20062;-80
2024/03/28 07:25:06;;;;;;;10.35;3.78;;;;;;;;;;4972871;28;20050;-80
2024/03/28 07:27:34;;;;;;;17.30;4.57;;;;;;;;;;4972723;28;20494;-80
2024/03/28 07:30:03;;;;;;;12.63;3.78;;;;;;;;;;4956908;28;20061;-84
2024/03/28 07:32:32;;;;;;;10.68;4.38;;;;;;;;;;4972160;28;20112;-81
2024/03/28 07:35:00;;;;;;;12.80;4.05;;;;;;;;;;4973199;28;20402;-81
2024/03/28 07:37:28;;;;;;;10.70;3.90;;;;;;;;;;4972588;28;20054;-80
2024/03/28 07:39:56;;;;;;;10.80;4.15;;;;;;;;;;4972743;28;20127;-80
2024/03/28 07:42:24;;;;;;;10.13;4.15;;;;;;;;;;4981961;28;20515;-80
2024/03/28 07:44:52;;;;;;;11.30;4.10;;;;;;;;;;4991593;28;20058;-80
2024/03/28 07:47:21;;;;;;;8.63;3.88;;;;;;;;;;4992547;28;20062;-82
2024/03/28 07:49:49;;;;;;;8.48;3.78;;;;;;;;;;4991385;28;20061;-83
2024/03/28 07:52:17;;;;;;;7.65;3.60;;;;;;;;;;4992250;28;20050;-80
2024/03/28 07:54:46;;;;;;;9.68;4.70;;;;;;;;;;4991499;28;20528;-80
2024/03/28 07:57:15;;;;;;;8.70;3.42;;;;;;;;;;4976209;28;20437;-80
2024/03/28 07:59:43;;;;;;;10.80;3.25;;;;;;;;;;4991505;28;20065;-80
2024/03/28 08:02:12;;;;;;;8.88;3.70;;;;;;;;;;4992318;28;20497;-83
2024/03/28 08:04:40;;;;;;;7.53;3.25;;;;;;;;;;4991690;28;20397;-79
2024/03/28 08:07:08;;;;;;;9.20;2.90;;;;;;;;;;4995005;28;20058;-78
2024/03/28 08:09:37;;;;;;;7.18;3.38;;;;;;;;;;4996086;28;20108;-79
2024/03/28 08:12:08;;;;;;;16.33;4.07;;;;;;;;;;4978595;28;20057;-79
2024/03/28 08:14:36;;;;;;;7.85;3.17;;;;;;;;;;4993816;28;20046;-79
2024/03/28 08:17:04;;;;;;;13.77;4.43;;;;;;;;;;4991182;28;20055;-79
2024/03/28 08:19:33;;;;;;;10.38;3.50;;;;;;;;;;4990229;28;20054;-81
2024/03/28 08:22:01;;;;;;;8.50;3.40;;;;;;;;;;4994382;28;20361;-82
2024/03/28 08:24:31;;;;;;;7.30;3.28;;;;;;;;;;4995589;28;20050;-80
2024/03/28 08:26:59;;;;;;;11.40;3.20;;;;;;;;;;4996207;28;20061;-80
2024/03/28 08:29:28;;;;;;;8.70;3.60;;;;;;;;;;4996076;28;20054;-83
2024/03/28 08:31:57;;;;;;;7.15;3.28;;;;;;;;;;4994906;28;20386;-80
2024/03/28 08:34:26;;;;;;;7.82;3.10;;;;;;;;;;4994587;28;20054;-80
2024/03/28 08:36:54;;;;;;;10.48;4.85;;;;;;;;;;4994407;28;20058;-80
2024/03/28 08:39:24;;;;;;;6.78;3.47;;;;;;;;;;4995664;28;20054;-80
2024/03/28 08:41:52;;;;;;;5.68;3.33;;;;;;;;;;4979782;28;20046;-80
2024/03/28 08:44:21;;;;;;;12.32;3.33;;;;;;;;;;4994368;28;20054;-81
2024/03/28 08:46:49;;;;;;;9.25;3.22;;;;;;;;;;4978507;28;20066;-82
2024/03/28 08:49:17;;;;;;;6.72;3.17;;;;;;;;;;4995387;28;20050;-81
2024/03/28 08:51:46;;;;;;;6.05;3.60;;;;;;;;;;4995492;28;20042;-79
2024/03/28 08:54:14;;;;;;;7.15;3.53;;;;;;;;;;4994325;28;20055;-81
2024/03/28 08:56:42;;;;;;;7.03;3.55;;;;;;;;;;4994405;28;20055;-82
2024/03/28 08:59:11;;;;;;;7.45;3.50;;;;;;;;;;4995225;28;20050;-81
2024/03/28 09:01:39;;;;;;;12.38;3.42;;;;;;;;;;4994143;28;20061;-81
2024/03/28 09:04:07;;;;;;;11.68;3.42;;;;;;;;;;4993955;28;20058;-81
2024/03/28 09:06:36;;;;;;;7.00;3.47;;;;;;;;;;4994434;28;20058;-80
2024/03/28 09:09:05;;;;;;;6.45;3.40;;;;;;;;;;4994060;28;20081;-81
2024/03/28 09:11:58;;;;;;;10.55;3.67;;;;;;;;;;4995887;28;20046;-80
2024/03/28 09:14:26;;;;;;;9.45;3.92;;;;;;;;;;4993617;28;20051;-80
2024/03/28 09:16:55;;;;;;;10.27;3.70;;;;;;;;;;4993909;28;20492;-79
2024/03/28 09:19:23;;;;;;;6.13;3.28;;;;;;;;;;4978302;28;20050;-80
2024/03/28 09:21:51;;;;;;;8.57;3.83;;;;;;;;;;4978886;28;20053;-80
2024/03/28 09:24:21;;;;;;;11.65;4.10;;;;;;;;;;4994357;28;20050;-80
2024/03/28 09:26:50;;;;;;;9.60;3.97;;;;;;;;;;4978837;28;20050;-81
2024/03/28 09:29:21;;;;;;;9.15;3.50;;;;;;;;;;4993809;28;20520;-79
2024/03/28 09:31:50;;;;;;;8.15;3.38;;;;;;;;;;4992512;28;20042;-81
2024/03/28 09:34:18;;;;;;;8.32;2.88;;;;;;;;;;4994451;28;20053;-80
2024/03/28 09:36:46;;;;;;;7.13;2.90;;;;;;;;;;4994604;28;20046;-80
2024/03/28 09:39:14;;;;;;;9.18;2.97;;;;;;;;;;4978627;28;20062;-78
2024/03/28 09:41:46;;;;;;;11.30;3.40;;;;;;;;;;4994582;28;20057;-80
2024/03/28 09:44:19;;;;;;;6.55;3.33;;;;;;;;;;4995017;28;20481;-80
2024/03/28 09:46:48;;;;;;;8.93;3.53;;;;;;;;;;4994477;28;20042;-82
2024/03/28 09:49:17;;;;;;;9.88;3.33;;;;;;;;;;4978642;28;20397;-79
2024/03/28 09:51:51;;;;;;;9.23;3.30;;;;;;;;;;4956758;28;20058;-80
2024/03/28 09:54:20;;;;;;;11.32;4.10;;;;;;;;;;4974028;28;20038;-80
2024/03/28 09:56:49;;;;;;;9.88;3.58;;;;;;;;;;4974429;28;20035;-80
2024/03/28 09:59:17;;;;;;;9.73;3.35;;;;;;;;;;4974958;28;20050;-79
2024/03/28 10:01:48;;;;;;;6.38;2.90;;;;;;;;;;4973893;28;20046;-80
2024/03/28 10:04:20;;;;;;;8.82;3.28;;;;;;;;;;4974391;28;20486;-79
2024/03/28 10:06:50;;;;;;;7.70;2.80;;;;;;;;;;4950294;28;20123;-81
2024/03/28 10:09:18;;;;;;;6.85;2.72;;;;;;;;;;4972035;28;20050;-79
2024/03/28 10:11:46;;;;;;;8.65;3.33;;;;;;;;;;4973746;28;20051;-80
2024/03/28 10:14:22;;;;;;;6.85;3.17;;;;;;;;;;4956919;28;20046;-81
2024/03/28 10:16:59;;;;;;;7.53;3.08;;;;;;;;;;4972519;28;20043;-80
2024/03/28 10:19:29;;;;;;;7.13;2.83;;;;;;;;;;4974569;28;20043;-82
2024/03/28 10:22:11;;;;;;;7.45;3.17;;;;;;;;;;4974406;28;20043;-79
2024/03/28 10:24:46;;;;;;;5.32;2.53;;;;;;;;;;4973884;28;20050;-83
2024/03/28 10:27:16;;;;;;;7.78;2.70;;;;;;;;;;4957010;28;20039;-79
2024/03/28 10:29:55;;;;;;;8.80;3.28;;;;;;;;;;4954572;29;20054;-82
2024/03/28 10:32:24;;;;;;;8.82;2.78;;;;;;;;;;4955470;29;20043;-82
2024/03/28 10:34:53;;;;;;;9.90;3.25;;;;;;;;;;4955224;28;20070;-81
2024/03/28 10:37:23;;;;;;;6.80;3.30;;;;;;;;;;4955115;29;20494;-80
2024/03/28 10:39:51;;;;;;;8.88;3.45;;;;;;;;;;4955091;28;20063;-80
2024/03/28 10:42:20;;;;;;;6.07;3.08;;;;;;;;;;4969662;28;20046;-81
2024/03/28 10:44:48;;;;;;;5.57;2.85;;;;;;;;;;4973178;28;20054;-80
2024/03/28 10:47:17;;;;;;;6.55;2.38;;;;;;;;;;4961101;28;20055;-80
2024/03/28 10:50:19;;;;;;;7.82;2.72;;;;;;;;;;4954410;29;20467;-81
2024/03/28 10:53:01;;;;;;;5.70;2.33;;;;;;;;;;4954833;29;20039;-80
2024/03/28 10:55:37;;;;;;;9.20;2.13;;;;;;;;;;4955073;29;20391;-79
2024/03/28 10:58:08;;;;;;;10.73;3.13;;;;;;;;;;4955461;28;20046;-81
2024/03/28 11:00:37;;;;;;;6.10;3.13;;;;;;;;;;4972701;28;20074;-83
2024/03/28 11:03:08;;;;;;;9.18;3.00;;;;;;;;;;4973459;28;20047;-80
2024/03/28 11:05:38;;;;;;;4.18;2.20;;;;;;;;;;4974052;28;20043;-83
2024/03/28 11:08:07;;;;;;;5.18;2.15;;;;;;;;;;4974159;28;20039;-84
2024/03/28 11:10:36;;;;;;;9.85;2.65;;;;;;;;;;4973761;28;20062;-81
2024/03/28 11:13:07;;;;;;;6.05;2.45;;;;;;;;;;4974162;28;20042;-83
2024/03/28 11:15:35;;;;;;;7.47;2.45;;;;;;;;;;4964939;28;20047;-82
2024/03/28 11:18:05;;;;;;;6.45;2.63;;;;;;;;;;4954729;28;20038;-81
2024/03/28 11:20:33;;;;;;;5.75;2.30;;;;;;;;;;4968640;28;20051;-80
2024/03/28 11:23:05;;;;;;;3.67;2.25;;;;;;;;;;4953353;28;20032;-80
2024/03/28 11:25:36;;;;;;;5.55;2.20;;;;;;;;;;4956462;28;20046;-83
2024/03/28 11:28:11;;;;;;;6.03;2.42;;;;;;;;;;4970688;28;20053;-80
2024/03/28 11:30:53;;;;;;;6.25;2.38;;;;;;;;;;4972888;28;20042;-81
2024/03/28 11:33:39;;;;;;;7.40;2.58;;;;;;;;;;4967051;28;20047;-83
2024/03/28 11:36:36;;;;;;;6.38;2.47;;;;;;;;;;4961088;28;20046;-81
2024/03/28 11:39:04;;;;;;;8.68;2.42;;;;;;;;;;4970999;28;20043;-79
2024/03/28 11:41:33;;;;;;;4.38;2.03;;;;;;;;;;4972057;28;20154;-79
2024/03/28 11:44:02;;;;;;;9.15;2.67;;;;;;;;;;4970091;28;20050;-80
2024/03/28 11:46:31;;;;;;;13.57;2.70;;;;;;;;;;4953575;28;20047;-80
2024/03/28 11:48:59;;;;;;;4.47;2.17;;;;;;;;;;4955455;28;20050;-81
2024/03/28 11:51:28;;;;;;;6.55;2.22;;;;;;;;;;4972054;28;20043;-80
2024/03/28 11:53:58;;;;;;;6.53;2.13;;;;;;;;;;4970830;28;20050;-79
2024/03/28 11:56:27;;;;;;;4.13;2.00;;;;;;;;;;4965324;28;20498;-81
2024/03/28 11:58:55;;;;;;;4.15;1.88;;;;;;;;;;4957368;29;20059;-80
2024/03/28 12:01:24;;;;;;;9.45;2.17;;;;;;;;;;4956995;29;20050;-81
2024/03/28 12:03:52;;;;;;;4.30;1.92;;;;;;;;;;4942837;29;20548;-80
2024/03/28 12:06:20;;;;;;;5.32;1.55;;;;;;;;;;4958950;28;20074;-80
2024/03/28 12:08:48;;;;;;;5.80;2.10;;;;;;;;;;4956934;29;20050;-81
2024/03/28 12:11:17;;;;;;;7.55;1.80;;;;;;;;;;4979323;28;20043;-80
2024/03/28 12:13:49;;;;;;;3.83;1.35;;;;;;;;;;4976297;28;20062;-80
2024/03/28 12:16:18;;;;;;;4.60;2.25;;;;;;;;;;4975939;28;20474;-80
2024/03/28 12:18:46;;;;;;;3.80;1.80;;;;;;;;;;4975733;28;20512;-81
2024/03/28 12:21:17;;;;;;;6.30;1.85;;;;;;;;;;4975772;28;20066;-80
2024/03/28 12:23:45;;;;;;;3.15;2.03;;;;;;;;;;4975278;28;20047;-79
2024/03/28 12:26:26;;;;;;;11.52;2.40;;;;;;;;;;4974789;28;20057;-80
2024/03/28 12:28:55;;;;;;;4.15;1.90;;;;;;;;;;4974331;28;20039;-80
2024/03/28 12:31:29;;;;;;;5.78;1.77;;;;;;;;;;4957145;28;20055;-80
2024/03/28 12:34:13;;;;;;;11.02;2.13;;;;;;;;;;4958228;28;20043;-81
2024/03/28 12:36:41;;;;;;;9.55;2.10;;;;;;;;;;4972379;28;20058;-81
2024/03/28 12:39:10;;;;;;;6.32;1.85;;;;;;;;;;4975814;28;20066;-81
2024/03/28 12:41:41;;;;;;;6.00;2.00;;;;;;;;;;4975394;28;20043;-80
2024/03/28 12:44:31;;;;;;;5.43;2.22;;;;;;;;;;4958065;28;20047;-81
2024/03/28 12:47:00;;;;;;;7.10;2.00;;;;;;;;;;4957824;28;20054;-80
2024/03/28 12:49:33;;;;;;;4.95;1.85;;;;;;;;;;4976057;28;20125;-81
2024/03/28 12:52:03;;;;;;;7.18;2.03;;;;;;;;;;4964237;28;20043;-81
2024/03/28 12:54:32;;;;;;;10.93;2.08;;;;;;;;;;4955772;29;20486;-81
2024/03/28 12:57:00;;;;;;;5.32;2.00;;;;;;;;;;4940955;28;20042;-79
2024/03/28 12:59:28;;;;;;;3.08;1.63;;;;;;;;;;4971444;28;20070;-79
2024/03/28 13:01:56;;;;;;;6.45;1.65;;;;;;;;;;4971686;28;20050;-80
2024/03/28 13:04:25;;;;;;;10.80;2.30;;;;;;;;;;4963813;28;20062;-81
2024/03/28 13:06:53;;;;;;;4.13;1.80;;;;;;;;;;4966580;28;20053;-81
2024/03/28 13:09:23;;;;;;;6.70;1.85;;;;;;;;;;4958462;28;20157;-83
2024/03/28 13:11:51;;;;;;;6.18;1.58;;;;;;;;;;4955072;28;20059;-81
2024/03/28 13:14:19;;;;;;;6.00;1.48;;;;;;;;;;4956418;28;20051;-81
2024/03/28 13:16:48;;;;;;;4.90;1.20;;;;;;;;;;4955463;28;20039;-81
2024/03/28 13:19:16;;;;;;;4.10;1.13;;;;;;;;;;4956066;28;20040;-81
2024/03/28 13:21:46;;;;;;;3.10;1.25;;;;;;;;;;4957909;28;20525;-82
2024/03/28 13:24:14;;;;;;;7.65;2.90;;;;;;;;;;4954592;28;20266;-82
2024/03/28 13:26:43;;;;;;;2.85;1.05;;;;;;;;;;4954863;28;20058;-81
2024/03/28 13:29:11;;;;;;;4.25;1.10;;;;;;;;;;4940016;28;20427;-82
2024/03/28 13:31:40;;;;;;;5.72;1.10;;;;;;;;;;4955014;29;20054;-82
2024/03/28 13:34:08;;;;;;;3.28;1.17;;;;;;;;;;4956077;28;20051;-83
2024/03/28 13:36:36;;;;;;;7.15;1.10;;;;;;;;;;4970383;28;20043;-81
2024/03/28 13:39:05;;;;;;;2.17;1.05;;;;;;;;;;4956852;28;20047;-82
2024/03/28 13:41:33;;;;;;;4.00;1.23;;;;;;;;;;4957335;28;20039;-83
2024/03/28 13:44:03;;;;;;;4.25;1.20;;;;;;;;;;4973985;28;20050;-83
2024/03/28 13:46:31;;;;;;;3.95;1.10;;;;;;;;;;4973792;28;20043;-81
2024/03/28 13:48:59;;;;;;;1.90;1.15;;;;;;;;;;4974032;28;20046;-81
2024/03/28 13:51:27;;;;;;;4.10;1.20;;;;;;;;;;4972711;28;20054;-79
2024/03/28 13:53:56;;;;;;;4.43;1.52;;;;;;;;;;4956038;28;20066;-81
2024/03/28 13:56:25;;;;;;;3.90;1.08;;;;;;;;;;4956925;28;20055;-80
2024/03/28 13:58:53;;;;;;;7.35;3.10;;;;;;;;;;4967217;28;20402;-82
2024/03/28 14:01:21;;;;;;;71.55;44.30;;;;;;;;;;4967698;28;20058;-80
2024/03/28 14:03:50;;;;;;;10.90;3.42;;;;;;;;;;4956802;28;20059;-81
2024/03/28 14:06:18;;;;;;;32.88;15.05;;;;;;;;;;4956911;28;20047;-82
2024/03/28 14:08:46;;;;;;;2.17;1.27;;;;;;;;;;4964258;28;20053;-82
2024/03/28 14:11:17;;;;;;;2.80;1.13;;;;;;;;;;4970049;28;20047;-81
2024/03/28 14:13:46;;;;;;;4.18;1.33;;;;;;;;;;4973787;28;20051;-81
2024/03/28 14:16:14;;;;;;;4.38;1.33;;;;;;;;;;4973222;28;20050;-80
2024/03/28 14:18:42;;;;;;;3.67;1.30;;;;;;;;;;4955720;28;20051;-81
2024/03/28 14:21:10;;;;;;;2.67;1.25;;;;;;;;;;4969572;28;20050;-82
2024/03/28 14:23:39;;;;;;;14.10;5.47;;;;;;;;;;4954619;28;20059;-80
2024/03/28 14:26:07;;;;;;;4.20;1.70;;;;;;;;;;4953521;28;20054;-80
2024/03/28 14:28:37;;;;;;;3.67;1.33;;;;;;;;;;4955552;28;20058;-80
2024/03/28 14:31:09;;;;;;;5.28;1.58;;;;;;;;;;4953886;29;20054;-81
2024/03/28 14:33:38;;;;;;;6.10;1.80;;;;;;;;;;4963502;28;20070;-81
2024/03/28 14:36:08;;;;;;;3.97;1.30;;;;;;;;;;4959850;28;20043;-81
2024/03/28 14:38:36;;;;;;;3.53;1.48;;;;;;;;;;4969358;28;20601;-81
2024/03/28 14:41:06;;;;;;;3.80;1.40;;;;;;;;;;4957882;28;20046;-80
2024/03/28 14:43:40;;;;;;;4.57;1.50;;;;;;;;;;4969849;28;20050;-79
2024/03/28 14:46:12;;;;;;;3.90;1.50;;;;;;;;;;4982887;28;20050;-79
2024/03/28 14:48:42;;;;;;;2.67;1.30;;;;;;;;;;4984112;28;20501;-82
2024/03/28 14:51:10;;;;;;;4.93;1.45;;;;;;;;;;4985079;28;20061;-81
2024/03/28 14:53:39;;;;;;;6.95;1.58;;;;;;;;;;4965780;28;20047;-79
2024/03/28 14:56:07;;;;;;;2.65;1.25;;;;;;;;;;4983404;28;20058;-77
2024/03/28 14:58:35;;;;;;;4.15;1.45;;;;;;;;;;4978637;28;20042;-80